Astrid — OFLT — position and weather

sailwx.info

Track history (hours):
 
Tides and Currents Weather Stations Pressure Air Temp Water Temp Dewpoint Dewpoint Depression Visibility Wind Speed Wind Dir Waves Ship Positions

Astrid

Last reported at 2015-Jul-26 08:17 UTC. Time now 2015-Jul-30 08:17 UTC.
Position N 60°16' E 026°07'.

Length 25 m; draft 2.3 m.

Type: Sailing vessel. MMSI: 230998670.

Date/timePositionNaut miles runAvg speedWind from/ knotsBaromVisibWave heightAir tempDewpointWater temp
2015-Jul-26 08:17N 60°16' E 026°07'5 6.4
2015-Jul-26 07:34N 60°17' E 026°16'6 5.7
2015-Jul-26 06:33N 60°19' E 026°27'6 6.1
2015-Jul-26 05:33N 60°21' E 026°38'7 6.7
2015-Jul-26 04:34N 60°24' E 026°51'6 5.6
2015-Jul-26 03:34N 60°28' E 026°58'0 0.4
2015-Jul-26 02:34N 60°28' E 026°57'0 0.0
2015-Jul-26 01:30N 60°28' E 026°57'0 0.0
2015-Jul-26 00:31N 60°28' E 026°57'0 0.0
2015-Jul-25 23:34N 60°28' E 026°57'0 0.0
2015-Jul-25 22:34N 60°28' E 026°57'0 0.0
2015-Jul-25 21:33N 60°28' E 026°57'0 0.0
2015-Jul-25 20:34N 60°28' E 026°57'0 0.0
2015-Jul-25 19:34N 60°28' E 026°57'0 0.0
2015-Jul-25 18:34N 60°28' E 026°57'0 0.0
2015-Jul-25 17:30N 60°28' E 026°57'0 0.0
2015-Jul-25 16:34N 60°28' E 026°57'0 0.0
2015-Jul-25 15:33N 60°28' E 026°57'0 0.0
2015-Jul-25 14:33N 60°28' E 026°57'0 0.0
2015-Jul-25 13:33N 60°28' E 026°57'0 0.0
2015-Jul-25 12:34N 60°28' E 026°57'5 5.4
2015-Jul-25 11:33N 60°29' E 027°07'  
Track history (hours):
 
Tides and Currents Weather Stations Pressure Air Temp Water Temp Dewpoint Dewpoint Depression Visibility Wind Speed Wind Dir Waves Ship Positions

Astrid

Last reported at 2015-Jul-26 08:17 UTC. Time now 2015-Jul-30 08:17 UTC.
Position N 60°16' E 026°07'.

Length 25 m; draft 2.3 m.

Type: Sailing vessel. MMSI: 230998670.

Date/timePositionNaut miles runAvg speedWind from/ knotsBaromVisibWave heightAir tempDewpointWater temp
2015-Jul-26 08:17N 60°16' E 026°07'5 6.4
2015-Jul-26 07:34N 60°17' E 026°16'6 5.7
2015-Jul-26 06:33N 60°19' E 026°27'6 6.1
2015-Jul-26 05:33N 60°21' E 026°38'7 6.7
2015-Jul-26 04:34N 60°24' E 026°51'6 5.6
2015-Jul-26 03:34N 60°28' E 026°58'0 0.4
2015-Jul-26 02:34N 60°28' E 026°57'0 0.0
2015-Jul-26 01:30N 60°28' E 026°57'0 0.0
2015-Jul-26 00:31N 60°28' E 026°57'0 0.0
2015-Jul-25 23:34N 60°28' E 026°57'0 0.0
2015-Jul-25 22:34N 60°28' E 026°57'0 0.0
2015-Jul-25 21:33N 60°28' E 026°57'0 0.0
2015-Jul-25 20:34N 60°28' E 026°57'0 0.0
2015-Jul-25 19:34N 60°28' E 026°57'0 0.0
2015-Jul-25 18:34N 60°28' E 026°57'0 0.0
2015-Jul-25 17:30N 60°28' E 026°57'0 0.0
2015-Jul-25 16:34N 60°28' E 026°57'0 0.0
2015-Jul-25 15:33N 60°28' E 026°57'0 0.0
2015-Jul-25 14:33N 60°28' E 026°57'0 0.0
2015-Jul-25 13:33N 60°28' E 026°57'0 0.0
2015-Jul-25 12:34N 60°28' E 026°57'5 5.4
2015-Jul-25 11:33N 60°29' E 027°07'  

Dump ship's entire track history